Time;durP1;ratioP1;P1;durP2;ratioP2;P2;SDS_P1;SDS_P2;PMS_P1;PMS_P2;Temp;Humidity;BMP_temperature;BMP_pressure;BME280_temperature;BME280_humidity;BME280_pressure;Samples;Min_cycle;Max_cycle;Signal;HPM_P1;HPM_P2
2024/03/18 00:02:20;;;;;;;8.50;6.38;;;;;;;20.44;43.52;93963.81;4945817;28;20030;-65
2024/03/18 00:04:45;;;;;;;6.93;6.05;;;;;;;20.47;43.24;93963.09;4936761;28;20616;-66
2024/03/18 00:07:16;;;;;;;7.20;5.57;;;;;;;20.46;43.20;93955.34;4940830;28;20043;-66
2024/03/18 00:10:02;;;;;;;6.82;5.47;;;;;;;20.45;43.32;93954.59;4940151;28;20049;-65
2024/03/18 00:12:27;;;;;;;6.25;5.32;;;;;;;20.43;43.21;93953.41;4932174;28;20051;-65
2024/03/18 00:15:19;;;;;;;7.28;5.90;;;;;;;20.42;43.37;93955.34;4941390;28;20121;-65
2024/03/18 00:17:59;;;;;;;7.00;5.78;;;;;;;20.40;43.59;93944.13;4941656;28;20031;-65
2024/03/18 00:20:37;;;;;;;6.60;5.63;;;;;;;20.38;43.47;93954.53;4942081;28;20023;-65
2024/03/18 00:23:34;;;;;;;6.00;5.40;;;;;;;20.37;43.57;93947.56;4942167;28;20519;-65
2024/03/18 00:26:07;;;;;;;5.95;5.35;;;;;;;20.33;43.33;93935.19;4943213;28;20060;-65
2024/03/18 00:28:46;;;;;;;7.07;5.88;;;;;;;20.39;43.35;93944.47;4926542;28;20410;-65
2024/03/18 00:31:15;;;;;;;6.15;4.70;;;;;;;20.34;43.61;93940.19;4940158;28;20047;-66
2024/03/18 00:33:40;;;;;;;6.47;5.13;;;;;;;20.31;43.35;93929.34;4938530;28;20716;-59
2024/03/18 00:36:06;;;;;;;5.55;4.95;;;;;;;20.28;43.42;93920.09;4940645;28;20052;-66
2024/03/18 00:39:06;;;;;;;6.40;5.15;;;;;;;20.27;43.15;93929.34;4941282;28;20496;-65
2024/03/18 00:41:52;;;;;;;6.43;5.05;;;;;;;20.29;43.24;93929.72;4938989;28;20097;-66
2024/03/18 00:44:23;;;;;;;5.93;5.30;;;;;;;20.25;43.04;93931.63;4941689;28;20030;-66
2024/03/18 00:47:28;;;;;;;5.78;5.18;;;;;;;20.19;43.12;93918.84;4938583;28;20054;-60
2024/03/18 00:50:31;;;;;;;4.85;4.25;;;;;;;20.21;42.71;93920.00;5076129;23;20062;-60
2024/03/18 00:52:57;;;;;;;6.05;4.72;;;;;;;20.19;42.72;93922.28;4952316;28;20057;-60
2024/03/18 00:56:06;;;;;;;5.10;4.35;;;;;;;20.19;42.93;93913.44;4957656;28;20077;-60
2024/03/18 00:58:41;;;;;;;6.80;5.15;;;;;;;20.13;43.01;93921.06;4959396;28;20250;-64
2024/03/18 01:01:08;;;;;;;;;;;;;;;20.12;43.47;93920.28;4962234;28;20042;-65
2024/03/18 01:03:38;;;;;;;7.93;5.10;;;;;;;20.12;43.51;93928.38;4963786;28;19921;-65
2024/03/18 01:06:03;;;;;;;6.38;5.40;;;;;;;20.12;43.87;93919.50;4965601;28;20121;-66
2024/03/18 01:08:47;;;;;;;5.50;4.65;;;;;;;20.11;43.54;93913.31;4955783;28;20034;-67
2024/03/18 01:11:13;;;;;;;5.22;4.68;;;;;;;20.13;43.42;93921.06;4962432;28;20023;-66
2024/03/18 01:16:31;;;;;;;6.60;4.82;;;;;;;20.18;43.62;93909.97;4961162;28;20119;-67
2024/03/18 01:18:59;;;;;;;6.50;5.03;;;;;;;20.17;43.58;93908.41;4954845;28;20239;-67
2024/03/18 01:21:32;;;;;;;6.57;4.95;;;;;;;20.19;43.51;93908.03;4959429;28;20042;-66
2024/03/18 01:23:58;;;;;;;5.97;4.82;;;;;;;20.21;43.22;93914.59;4965761;28;20038;-64
2024/03/18 01:26:38;;;;;;;6.10;5.45;;;;;;;20.23;43.29;93901.53;4962933;28;20330;-63
2024/03/18 01:29:05;;;;;;;4.95;4.45;;;;;;;20.34;42.78;93904.28;4963359;28;20027;-65
2024/03/18 01:31:40;;;;;;;4.95;4.13;;;;;;;20.34;42.62;93907.78;4965901;28;20073;-64
2024/03/18 01:34:10;;;;;;;5.40;4.53;;;;;;;20.39;42.60;93903.97;4969653;28;20042;-64
2024/03/18 01:37:02;;;;;;;5.28;4.78;;;;;;;20.30;42.62;93909.69;4970854;28;20049;-65
2024/03/18 01:39:33;;;;;;;5.97;4.55;;;;;;;20.32;42.52;93899.28;4962031;28;20651;-65
2024/03/18 01:41:59;;;;;;;5.88;4.85;;;;;;;20.32;42.46;93895.81;4964741;28;20034;-65
2024/03/18 01:44:24;;;;;;;4.97;4.47;;;;;;;20.33;42.54;93891.97;4964699;28;20037;-65
2024/03/18 01:46:50;;;;;;;5.10;4.60;;;;;;;20.31;42.55;93891.56;4967237;28;20109;-66
2024/03/18 01:49:41;;;;;;;5.13;4.05;;;;;;;20.30;42.64;93890.00;4960768;28;20116;-66
2024/03/18 01:52:11;;;;;;;4.90;4.40;;;;;;;20.29;42.76;93896.56;4981914;28;20050;-64
2024/03/18 01:55:04;;;;;;;5.55;4.53;;;;;;;20.26;42.66;93889.19;4984226;28;20036;-65
2024/03/18 01:57:39;;;;;;;4.95;4.45;;;;;;;20.23;42.68;93879.13;4984114;28;20034;-65
2024/03/18 02:03:24;;;;;;;4.63;4.13;;;;;;;20.19;43.01;93879.09;4976488;28;20049;-65
2024/03/18 02:06:02;;;;;;;5.30;4.50;;;;;;;20.23;42.95;93881.84;4968948;28;20049;-65
2024/03/18 02:08:28;;;;;;;4.35;3.95;;;;;;;20.30;42.60;93871.88;4976281;28;20026;-64
2024/03/18 02:10:56;;;;;;;4.57;3.97;;;;;;;20.30;42.52;93877.25;4986037;28;20033;-66
2024/03/18 02:13:22;;;;;;;4.55;4.07;;;;;;;20.30;42.63;93877.25;4986219;28;20129;-60
2024/03/18 02:15:54;;;;;;;4.85;3.75;;;;;;;20.31;42.46;93883.44;4969926;28;20060;-56
2024/03/18 02:18:24;;;;;;;6.10;3.97;;;;;;;20.33;42.37;93881.16;4983797;28;20523;-59
2024/03/18 02:21:26;;;;;;;4.35;3.90;;;;;;;20.33;42.17;93881.16;4978553;28;20888;-59
2024/03/18 02:23:52;;;;;;;4.97;4.00;;;;;;;20.30;42.28;93879.19;4974694;28;20041;-60
2024/03/18 02:26:20;;;;;;;4.75;4.20;;;;;;;20.27;42.35;93886.13;4983669;28;20113;-59
2024/03/18 02:29:13;;;;;;;4.60;4.03;;;;;;;20.28;42.27;93879.59;4975294;28;20745;-59
2024/03/18 02:31:41;;;;;;;5.68;4.28;;;;;;;20.26;42.51;93870.28;4982225;28;20073;-59
2024/03/18 02:34:49;;;;;;;4.88;4.10;;;;;;;20.29;42.48;93886.50;4970439;28;20180;-60
2024/03/18 02:37:14;;;;;;;4.50;3.58;;;;;;;20.26;42.54;93876.47;4979623;28;20658;-59
2024/03/18 02:39:46;;;;;;;4.78;4.10;;;;;;;20.25;42.41;93877.59;4970562;28;20505;-57
2024/03/18 02:42:27;;;;;;;4.65;4.18;;;;;;;20.20;42.41;93872.53;4974614;28;20037;-59
2024/03/18 02:45:08;;;;;;;5.10;4.25;;;;;;;20.24;42.63;93872.59;4978624;28;20038;-59
2024/03/18 02:47:38;;;;;;;5.18;4.68;;;;;;;20.22;42.70;93872.97;4979889;28;20029;-59
2024/03/18 02:50:05;;;;;;;4.28;3.80;;;;;;;20.26;42.57;93881.88;4960871;28;20042;-60
2024/03/18 02:52:35;;;;;;;5.65;4.30;;;;;;;20.27;42.36;93872.63;4971548;28;20030;-59
2024/03/18 02:55:26;;;;;;;5.22;4.35;;;;;;;20.30;42.40;93871.88;4945362;28;20351;-60
2024/03/18 02:58:01;;;;;;;5.32;4.10;;;;;;;20.34;42.15;93872.66;4979052;28;20143;-58
2024/03/18 03:00:27;;;;;;;5.22;4.22;;;;;;;20.33;42.28;93881.16;4970790;28;20057;-61
2024/03/18 03:03:13;;;;;;;4.30;3.90;;;;;;;20.28;42.15;93874.19;4981426;28;20087;-59
2024/03/18 03:05:40;;;;;;;5.15;4.60;;;;;;;20.22;42.40;93872.19;4983611;28;20064;-59
2024/03/18 03:08:11;;;;;;;6.47;4.03;;;;;;;20.23;42.31;93866.41;4978680;28;20034;-59
2024/03/18 03:10:41;;;;;;;4.63;4.13;;;;;;;20.25;42.11;93879.53;4979384;28;20095;-58
2024/03/18 03:13:29;;;;;;;4.40;3.90;;;;;;;20.25;42.13;93869.50;4983519;28;21084;-59
2024/03/18 03:16:40;;;;;;;4.82;4.38;;;;;;;20.25;42.13;93866.81;4983294;28;20038;-58
2024/03/18 03:19:08;;;;;;;4.45;4.05;;;;;;;20.23;42.28;93858.31;4986031;28;20076;-59
2024/03/18 03:21:57;;;;;;;4.53;3.95;;;;;;;20.19;42.08;93860.19;4979746;28;20093;-59
2024/03/18 03:24:47;;;;;;;4.70;3.90;;;;;;;20.15;42.16;93870.16;4976333;28;20626;-59
2024/03/18 03:27:12;;;;;;;5.75;4.68;;;;;;;20.13;41.99;93850.88;4979326;28;20642;-59
2024/03/18 03:29:39;;;;;;;4.45;3.72;;;;;;;20.17;41.85;93854.41;4973447;28;20031;-58
2024/03/18 03:32:05;;;;;;;4.32;3.92;;;;;;;20.16;42.07;93858.22;4982032;28;20435;-59
2024/03/18 03:34:59;;;;;;;4.40;3.83;;;;;;;20.16;41.95;93855.50;4976065;28;20046;-59
2024/03/18 03:37:36;;;;;;;5.45;4.38;;;;;;;20.14;41.69;93845.06;4979733;28;20038;-59
2024/03/18 03:40:03;;;;;;;4.90;4.03;;;;;;;20.13;41.67;93848.16;4978015;28;20589;-59
2024/03/18 03:42:44;;;;;;;4.57;4.18;;;;;;;20.13;41.55;93850.88;4961622;28;20513;-59
2024/03/18 03:45:11;;;;;;;4.38;3.95;;;;;;;20.12;41.37;93843.91;4977737;28;20058;-59
2024/03/18 03:47:42;;;;;;;4.78;4.10;;;;;;;20.12;41.26;93849.31;4979042;28;20124;-59
2024/03/18 03:53:02;;;;;;;4.32;3.80;;;;;;;20.11;41.23;93847.75;4985254;28;20072;-60
2024/03/18 03:55:28;;;;;;;4.60;3.63;;;;;;;20.08;41.55;93848.50;4986227;28;20096;-59
2024/03/18 03:57:56;;;;;;;4.63;4.07;;;;;;;20.09;41.68;93840.00;4984860;28;20034;-57
2024/03/18 04:00:23;;;;;;;5.03;3.88;;;;;;;20.11;41.12;93840.44;4981447;28;20038;-58
2024/03/18 04:02:56;;;;;;;4.80;4.30;;;;;;;20.15;40.94;93849.34;4985595;28;20041;-59
2024/03/18 04:05:55;;;;;;;4.40;3.88;;;;;;;20.17;40.65;93852.47;4982688;28;20500;-57
2024/03/18 04:08:43;;;;;;;4.25;3.85;;;;;;;20.20;40.88;93840.13;4979165;28;20026;-59
2024/03/18 04:11:28;;;;;;;4.57;4.18;;;;;;;20.18;40.47;93842.47;4986616;28;20531;-59
2024/03/18 04:13:56;;;;;;;4.67;4.23;;;;;;;20.18;40.70;93842.47;4958121;28;20685;-59
2024/03/18 04:16:23;;;;;;;4.38;3.97;;;;;;;20.22;40.76;93845.97;4984156;28;20049;-59
2024/03/18 04:18:51;;;;;;;4.93;4.15;;;;;;;20.18;40.95;93842.47;4984658;28;20061;-59
2024/03/18 04:21:16;;;;;;;4.63;4.13;;;;;;;20.22;40.61;93837.84;4983080;28;20041;-60
2024/03/18 04:23:42;;;;;;;4.78;4.32;;;;;;;20.22;40.40;93837.84;4975500;28;20117;-59
2024/03/18 04:26:18;;;;;;;4.63;4.22;;;;;;;20.27;40.36;93842.91;4990732;28;20044;-59
2024/03/18 04:29:21;;;;;;;4.78;4.03;;;;;;;20.27;40.14;93840.22;4983736;28;20038;-60
2024/03/18 04:31:49;;;;;;;5.18;4.10;;;;;;;20.27;40.55;93840.22;4983853;28;20042;-59
2024/03/18 04:36:59;;;;;;;3.95;3.63;;;;;;;20.18;41.20;93837.06;4975156;28;20060;-59
2024/03/18 04:39:26;;;;;;;5.07;4.60;;;;;;;20.21;40.91;93830.91;4987260;28;20037;-59
2024/03/18 04:41:55;;;;;;;4.28;3.85;;;;;;;20.18;41.49;93845.16;4974360;28;20025;-59
2024/03/18 04:44:25;;;;;;;5.18;4.32;;;;;;;20.21;41.41;93844.41;4987624;28;20033;-59
2024/03/18 04:47:03;;;;;;;4.75;4.35;;;;;;;20.21;41.34;93851.72;4981456;28;20041;-59
2024/03/18 04:49:28;;;;;;;5.30;4.80;;;;;;;20.19;41.79;93851.34;4982550;28;20050;-59
2024/03/18 04:51:57;;;;;;;4.85;4.30;;;;;;;20.17;41.90;93862.50;4986741;28;20092;-59
2024/03/18 04:54:23;;;;;;;5.53;4.28;;;;;;;20.17;41.68;93854.41;4968975;28;20033;-59
2024/03/18 04:57:11;;;;;;;4.40;3.65;;;;;;;20.14;41.87;93860.53;4981892;28;20700;-60
2024/03/18 04:59:37;;;;;;;4.63;4.22;;;;;;;20.12;42.06;93871.69;4976071;28;20397;-60
2024/03/18 05:02:02;;;;;;;4.20;3.80;;;;;;;20.11;42.22;93869.34;4980782;28;20419;-59
2024/03/18 05:04:33;;;;;;;5.82;4.35;;;;;;;20.11;42.42;93867.44;4985373;28;20034;-60
2024/03/18 05:07:02;;;;;;;5.10;4.60;;;;;;;20.15;42.11;93870.94;4978701;28;20048;-58
2024/03/18 05:09:34;;;;;;;5.22;3.97;;;;;;;20.17;41.93;93865.19;4950563;28;20069;-58
2024/03/18 05:12:03;;;;;;;4.30;3.90;;;;;;;20.05;41.73;93855.41;4979117;28;20815;-59
2024/03/18 05:14:33;;;;;;;5.30;4.45;;;;;;;20.18;41.33;93869.47;4974211;28;20030;-59
2024/03/18 05:16:59;;;;;;;5.80;5.15;;;;;;;20.15;41.36;93872.84;4986591;28;20038;-59
2024/03/18 05:19:25;;;;;;;5.00;4.43;;;;;;;20.05;40.88;93877.00;4989517;28;20083;-60
2024/03/18 05:22:00;;;;;;;5.88;4.85;;;;;;;;;;4981134;28;20034;-61
2024/03/18 05:24:44;;;;;;;5.70;5.10;;;;;;;19.91;42.06;93884.19;4982753;28;20109;-65
2024/03/18 05:27:23;;;;;;;5.45;4.88;;;;;;;19.85;42.22;93869.50;4975119;28;20180;-63
2024/03/18 05:30:11;;;;;;;5.28;4.78;;;;;;;19.99;42.31;93880.44;4983883;28;20041;-64
2024/03/18 05:32:47;;;;;;;5.00;4.47;;;;;;;20.12;41.46;93870.91;4991336;28;20054;-65
2024/03/18 05:35:54;;;;;;;5.65;4.47;;;;;;;20.16;41.16;93869.00;4985172;28;20088;-65
2024/03/18 05:38:20;;;;;;;4.97;4.30;;;;;;;20.20;41.48;93875.25;4900659;28;20057;-65
2024/03/18 05:41:01;;;;;;;4.30;3.90;;;;;;;20.20;41.29;93860.97;4981829;28;20029;-64
2024/03/18 05:43:49;;;;;;;4.30;3.88;;;;;;;20.26;41.19;93881.88;4977720;28;20038;-66
2024/03/18 05:46:40;;;;;;;5.10;4.55;;;;;;;20.28;41.03;93879.59;4969801;28;20038;-66
2024/03/18 05:49:32;;;;;;;5.40;4.82;;;;;;;20.33;40.89;93868.44;5016191;23;20058;-64
2024/03/18 05:52:14;;;;;;;4.95;4.43;;;;;;;20.42;41.34;93879.69;5003578;28;20037;-64
2024/03/18 05:55:04;;;;;;;6.43;5.10;;;;;;;20.44;41.56;93871.97;4998625;28;20072;-65
2024/03/18 05:57:30;;;;;;;5.43;4.93;;;;;;;20.46;41.51;93869.69;5002981;28;20042;-65
2024/03/18 06:00:07;;;;;;;5.70;5.10;;;;;;;20.48;41.33;93864.69;5006169;28;21046;-65
2024/03/18 06:02:59;;;;;;;5.95;4.88;;;;;;;20.53;41.37;93858.94;5002292;28;20025;-66
2024/03/18 06:05:33;;;;;;;5.03;4.45;;;;;;;20.55;41.30;93867.44;5002732;28;20070;-66
2024/03/18 06:11:15;;;;;;;5.57;5.07;;;;;;;20.50;41.80;93842.69;5003808;28;20096;-65
2024/03/18 06:14:26;;;;;;;5.75;4.63;;;;;;;20.62;41.85;93844.34;5002271;28;20483;-65
2024/03/18 06:17:26;;;;;;;6.28;4.63;;;;;;;20.61;42.06;93843.56;4980536;28;20060;-66
2024/03/18 06:20:03;;;;;;;5.18;4.68;;;;;;;20.58;42.03;93842.38;5001288;28;20029;-66
2024/03/18 06:23:08;;;;;;;7.45;5.65;;;;;;;20.47;41.39;93844.25;4981739;28;20407;-67
2024/03/18 06:25:58;;;;;;;6.50;4.57;;;;;;;20.63;41.38;93846.66;5001518;28;20414;-65
2024/03/18 06:29:18;;;;;;;6.50;4.63;;;;;;;20.63;41.77;93843.19;5002618;28;20041;-66
2024/03/18 06:31:44;;;;;;;6.18;4.93;;;;;;;20.64;41.97;93842.03;4907450;28;20051;-66
2024/03/18 06:34:47;;;;;;;6.72;4.95;;;;;;;20.69;41.48;93852.47;4998655;28;20191;-65
2024/03/18 06:37:12;;;;;;;6.07;5.05;;;;;;;20.71;41.91;93847.50;4988112;28;20045;-60
2024/03/18 06:42:44;;;;;;;5.75;4.65;;;;;;;20.74;42.10;93850.22;4996762;28;20664;-65
2024/03/18 06:45:11;;;;;;;5.05;4.15;;;;;;;20.78;41.48;93847.50;5002639;28;20091;-68
2024/03/18 06:48:10;;;;;;;6.05;5.13;;;;;;;20.78;41.39;93850.22;4975648;28;20575;-66
2024/03/18 06:50:39;;;;;;;11.35;4.45;;;;;;;20.80;42.32;93850.63;5003178;28;20259;-64
2024/03/18 06:53:11;;;;;;;5.63;4.45;;;;;;;20.93;41.22;93843.78;4998637;28;20140;-68
2024/03/18 06:56:02;;;;;;;5.97;4.68;;;;;;;20.90;41.20;93847.25;5003908;28;20033;-67
2024/03/18 06:58:27;;;;;;;7.80;5.03;;;;;;;20.84;41.52;93840.63;4997172;28;20132;-68
2024/03/18 07:01:14;;;;;;;9.25;5.57;;;;;;;20.86;41.24;93835.63;5002097;28;20534;-68
2024/03/18 07:03:40;;;;;;;7.95;4.93;;;;;;;20.93;41.68;93838.38;5000227;28;20077;-67
2024/03/18 07:06:07;;;;;;;7.00;5.75;;;;;;;20.94;41.39;93834.53;5001336;28;20649;-67
2024/03/18 07:08:57;;;;;;;5.25;4.68;;;;;;;20.94;41.54;93829.91;4997205;28;20541;-67
2024/03/18 07:11:43;;;;;;;6.03;4.55;;;;;;;20.95;41.58;93828.75;4993896;28;20137;-68
2024/03/18 07:14:08;;;;;;;5.57;5.05;;;;;;;20.96;41.48;93829.53;5001861;28;20037;-66
2024/03/18 07:16:43;;;;;;;9.15;4.82;;;;;;;20.97;41.42;93831.09;5002635;28;20043;-66
2024/03/18 07:19:29;;;;;;;9.25;5.05;;;;;;;20.95;41.45;93826.03;5000882;28;20045;-68
2024/03/18 07:22:03;;;;;;;5.97;4.63;;;;;;;20.94;41.28;93823.72;5002291;28;20048;-68
2024/03/18 07:24:29;;;;;;;6.65;5.95;;;;;;;20.87;40.82;93823.69;4999353;28;20060;-66
2024/03/18 07:26:57;;;;;;;5.90;5.30;;;;;;;20.90;41.24;93812.09;4994762;28;20052;-66
2024/03/18 07:29:42;;;;;;;7.53;5.38;;;;;;;20.94;41.29;93813.69;4999964;28;20026;-66
2024/03/18 07:32:28;;;;;;;7.60;5.30;;;;;;;20.96;41.25;93800.56;4969653;28;20054;-67
2024/03/18 07:35:24;;;;;;;7.18;5.38;;;;;;;20.99;41.35;93804.44;4999949;28;20083;-67
2024/03/18 07:37:50;;;;;;;6.40;4.43;;;;;;;20.99;41.35;93799.81;4998598;28;20041;-67
2024/03/18 07:40:20;;;;;;;5.60;5.10;;;;;;;21.00;41.38;93787.84;4997247;28;20052;-66
2024/03/18 07:42:49;;;;;;;7.43;5.43;;;;;;;21.03;41.16;93786.28;5003495;28;20108;-66
2024/03/18 07:46:04;;;;;;;9.38;5.25;;;;;;;21.06;41.31;93793.66;4976124;28;20068;-64
2024/03/18 07:48:35;;;;;;;7.57;5.18;;;;;;;21.07;41.28;93795.19;4997739;28;20034;-65
2024/03/18 07:51:08;;;;;;;6.15;5.35;;;;;;;21.07;41.09;93787.06;4977548;28;20065;-65
2024/03/18 07:53:36;;;;;;;8.15;5.07;;;;;;;21.09;41.32;93787.47;4980099;28;20048;-67
2024/03/18 07:56:12;;;;;;;9.90;5.50;;;;;;;21.09;41.22;93787.47;4982122;28;20049;-66
2024/03/18 07:59:01;;;;;;;8.18;5.90;;;;;;;21.09;41.04;93770.47;4978821;28;20030;-59
2024/03/18 08:01:51;;;;;;;5.75;5.18;;;;;;;20.97;41.21;93768.91;4982567;28;20220;-60
2024/03/18 08:04:22;;;;;;;5.97;5.20;;;;;;;21.05;41.34;93772.41;4975182;28;20707;-61
2024/03/18 08:06:50;;;;;;;6.70;4.93;;;;;;;21.07;41.24;93770.09;4982402;28;20053;-65
2024/03/18 08:09:32;;;;;;;5.88;5.07;;;;;;;21.03;41.30;93765.44;4974505;28;20030;-65
2024/03/18 08:11:59;;;;;;;6.50;5.03;;;;;;;21.06;41.36;93777.44;4981629;28;20042;-66
2024/03/18 08:14:31;;;;;;;5.15;4.65;;;;;;;21.08;41.42;93768.94;4976349;28;20468;-66
2024/03/18 08:17:04;;;;;;;7.13;5.65;;;;;;;21.06;41.31;93763.91;4980030;28;20219;-67
2024/03/18 08:19:30;;;;;;;5.97;5.07;;;;;;;21.08;41.08;93758.88;4975939;28;20068;-67
2024/03/18 08:22:11;;;;;;;5.78;5.00;;;;;;;21.11;40.99;93774.38;4978543;28;20095;-66
2024/03/18 08:27:35;;;;;;;6.40;5.05;;;;;;;21.15;41.16;93756.22;4974803;28;20053;-67
2024/03/18 08:30:22;;;;;;;7.88;4.88;;;;;;;21.17;40.99;93763.97;4978584;28;20500;-65
2024/03/18 08:32:47;;;;;;;6.80;5.55;;;;;;;21.16;40.90;93767.81;4976078;28;20853;-64
2024/03/18 08:35:13;;;;;;;6.47;5.47;;;;;;;21.14;40.86;93760.06;4975174;28;20423;-65
2024/03/18 08:37:43;;;;;;;7.40;5.40;;;;;;;21.14;40.75;93751.97;4980119;28;20617;-66
2024/03/18 08:40:10;;;;;;;6.35;5.60;;;;;;;21.16;41.08;93755.06;4984661;28;20099;-66
2024/03/18 08:42:40;;;;;;;5.43;4.93;;;;;;;21.15;41.18;93758.94;4975082;28;20096;-67
2024/03/18 08:45:08;;;;;;;7.68;5.15;;;;;;;21.15;41.07;93752.75;4977441;28;20038;-65
2024/03/18 08:50:22;;;;;;;6.60;4.97;;;;;;;21.12;40.96;93754.25;5037048;23;20148;-65
2024/03/18 08:53:01;;;;;;;5.60;4.90;;;;;;;21.13;40.79;93742.28;4998157;28;20084;-65
2024/03/18 08:55:27;;;;;;;6.13;5.38;;;;;;;21.12;41.02;93748.09;4997988;28;20076;-66
2024/03/18 08:58:01;;;;;;;5.93;5.35;;;;;;;21.07;41.15;93735.69;4966774;28;20033;-66
2024/03/18 09:01:15;;;;;;;7.95;4.82;;;;;;;21.10;40.83;93740.38;4994119;28;20054;-65
2024/03/18 09:03:40;;;;;;;5.03;4.50;;;;;;;21.13;40.86;93746.94;4998841;28;20574;-65
2024/03/18 09:06:11;;;;;;;6.07;4.75;;;;;;;21.15;41.04;93741.94;4998532;28;20443;-66
2024/03/18 09:08:39;;;;;;;6.93;4.38;;;;;;;21.13;39.84;93736.88;4996234;28;20042;-65
2024/03/18 09:11:06;;;;;;;6.22;4.82;;;;;;;21.13;40.66;93733.41;4998929;28;20475;-67
2024/03/18 09:13:37;;;;;;;6.18;5.20;;;;;;;21.12;40.74;93729.19;4998656;28;20042;-66
2024/03/18 09:16:07;;;;;;;5.55;4.82;;;;;;;21.11;40.62;93719.50;5002620;28;20657;-66
2024/03/18 09:18:45;;;;;;;5.10;4.60;;;;;;;21.12;40.80;93718.38;4986860;28;20150;-66
2024/03/18 09:21:11;;;;;;;6.43;5.20;;;;;;;21.12;40.69;93724.53;5000436;28;20727;-60
2024/03/18 09:23:54;;;;;;;7.28;4.68;;;;;;;21.15;40.74;93723.78;4998016;28;20557;-60
2024/03/18 09:26:31;;;;;;;6.53;4.50;;;;;;;21.13;40.78;93723.38;4994949;28;20041;-66
2024/03/18 09:29:11;;;;;;;7.38;5.28;;;;;;;21.13;40.81;93720.66;5003518;28;20064;-66
2024/03/18 09:31:43;;;;;;;8.27;4.53;;;;;;;21.12;40.61;93724.53;4996120;28;20042;-66
2024/03/18 09:34:09;;;;;;;5.63;4.38;;;;;;;21.13;40.90;93711.78;4999617;28;20103;-66
2024/03/18 09:36:51;;;;;;;4.50;4.10;;;;;;;21.14;40.71;93708.69;4999410;28;20051;-66
2024/03/18 09:39:25;;;;;;;5.05;4.00;;;;;;;21.14;41.04;93689.00;4999028;28;20034;-65
2024/03/18 09:41:52;;;;;;;5.47;4.45;;;;;;;21.13;40.99;93693.63;5000427;28;20058;-66
2024/03/18 09:44:23;;;;;;;5.10;4.50;;;;;;;21.12;40.92;93683.97;4996215;28;20512;-66
2024/03/18 09:46:50;;;;;;;4.68;4.25;;;;;;;21.13;40.83;93680.09;4999286;28;20497;-66
2024/03/18 09:49:25;;;;;;;5.57;4.90;;;;;;;21.13;41.06;93685.50;4998104;28;20381;-65
2024/03/18 09:51:50;;;;;;;5.35;4.30;;;;;;;21.13;40.84;93682.81;5000314;28;20045;-66
2024/03/18 09:54:26;;;;;;;5.97;4.40;;;;;;;21.14;40.90;93668.13;5003142;28;20099;-66
2024/03/18 09:57:01;;;;;;;6.15;4.45;;;;;;;21.11;40.86;93668.91;5004744;28;20049;-65
2024/03/18 09:59:26;;;;;;;5.60;4.43;;;;;;;21.13;40.96;93666.59;4999387;28;20026;-66
2024/03/18 10:01:52;;;;;;;5.07;4.57;;;;;;;21.13;40.92;93668.50;5003361;28;20037;-65
2024/03/18 10:04:26;;;;;;;4.07;3.67;;;;;;;21.12;41.14;93662.31;5000259;28;20041;-65
2024/03/18 10:06:57;;;;;;;4.75;4.18;;;;;;;21.12;40.88;93653.47;5002560;28;20049;-65
2024/03/18 10:09:28;;;;;;;4.28;3.88;;;;;;;21.12;41.03;93656.16;5004763;28;20053;-66
2024/03/18 10:11:56;;;;;;;4.70;4.20;;;;;;;21.10;41.04;93661.94;5001327;28;20049;-66
2024/03/18 10:14:25;;;;;;;5.93;4.45;;;;;;;21.12;41.25;93653.47;5002099;28;20048;-66
2024/03/18 10:16:58;;;;;;;4.68;4.05;;;;;;;21.14;40.89;93651.13;5007459;28;20034;-66
2024/03/18 10:19:40;;;;;;;5.40;4.20;;;;;;;21.14;40.94;93654.63;5004046;28;20066;-66
2024/03/18 10:22:11;;;;;;;5.05;3.92;;;;;;;21.15;40.84;93650.00;5004521;28;20049;-66
2024/03/18 10:24:39;;;;;;;4.32;3.83;;;;;;;21.15;41.05;93650.75;5001084;28;20034;-66
2024/03/18 10:27:13;;;;;;;4.93;4.07;;;;;;;21.15;41.20;93639.94;5003274;28;20034;-67
2024/03/18 10:30:00;;;;;;;4.57;3.85;;;;;;;21.14;40.88;93626.81;4993612;28;20095;-65
2024/03/18 10:32:27;;;;;;;4.68;3.83;;;;;;;21.18;40.75;93622.94;5002001;28;20033;-65
2024/03/18 10:35:00;;;;;;;5.95;4.88;;;;;;;21.20;40.86;93625.28;5005467;28;20029;-66
2024/03/18 10:37:27;;;;;;;4.30;3.90;;;;;;;21.21;41.06;93624.13;5001214;28;20521;-66
2024/03/18 10:40:29;;;;;;;6.53;4.15;;;;;;;21.21;41.11;93622.19;5000624;28;20053;-66
2024/03/18 10:42:58;;;;;;;4.60;3.50;;;;;;;21.20;41.01;93612.53;5002536;28;20049;-65
2024/03/18 10:46:09;;;;;;;4.07;3.65;;;;;;;21.22;41.01;93606.72;5001118;28;21207;-66
2024/03/18 10:48:36;;;;;;;4.70;3.90;;;;;;;21.20;40.80;93609.81;4998450;23;20153;-66
2024/03/18 10:51:21;;;;;;;4.15;3.53;;;;;;;21.20;40.83;93611.75;4988985;28;20038;-65
2024/03/18 10:53:51;;;;;;;3.33;3.03;;;;;;;21.21;41.16;93599.78;4990532;28;20148;-65
2024/03/18 10:56:19;;;;;;;4.25;3.85;;;;;;;21.18;41.06;93595.91;4988419;28;20025;-65
2024/03/18 10:58:51;;;;;;;5.22;4.68;;;;;;;21.20;40.91;93590.88;4970509;28;20034;-66
2024/03/18 11:01:23;;;;;;;6.55;4.15;;;;;;;21.20;40.81;93577.38;4983335;28;20500;-65
2024/03/18 11:03:51;;;;;;;4.35;3.95;;;;;;;21.22;41.03;93582.38;4988163;28;20034;-65
2024/03/18 11:06:16;;;;;;;4.30;3.85;;;;;;;21.23;40.87;93579.28;4988822;28;20034;-65
2024/03/18 11:08:49;;;;;;;3.85;3.55;;;;;;;21.24;40.85;93570.03;4989106;28;20066;-66
2024/03/18 11:11:33;;;;;;;4.40;4.00;;;;;;;21.26;41.18;93572.34;4970357;28;20050;-65
2024/03/18 11:14:02;;;;;;;5.20;4.32;;;;;;;21.27;40.95;93566.53;4992015;28;20040;-66
2024/03/18 11:16:33;;;;;;;4.63;4.20;;;;;;;21.25;40.37;93563.47;4965874;28;20038;-66
2024/03/18 11:19:05;;;;;;;4.55;4.13;;;;;;;21.30;40.67;93559.59;4984636;28;20435;-67
2024/03/18 11:21:30;;;;;;;3.63;3.33;;;;;;;21.28;39.75;93562.69;4982156;28;20057;-66
2024/03/18 11:24:01;;;;;;;4.85;3.28;;;;;;;21.25;39.48;93563.47;4966144;28;20058;-66
2024/03/18 11:26:29;;;;;;;3.40;3.10;;;;;;;21.24;40.32;93547.63;4986530;28;20635;-65
2024/03/18 11:29:08;;;;;;;4.20;3.80;;;;;;;21.24;40.31;93545.69;4985182;28;20112;-65
2024/03/18 11:31:40;;;;;;;5.60;3.45;;;;;;;21.22;40.45;93537.19;4989856;28;20180;-65
2024/03/18 11:34:09;;;;;;;4.75;3.38;;;;;;;21.12;40.83;93537.19;4983124;28;20038;-67
2024/03/18 11:36:40;;;;;;;3.63;3.33;;;;;;;21.05;41.12;93537.97;4983590;28;20073;-66
2024/03/18 11:39:17;;;;;;;5.57;3.67;;;;;;;21.12;41.31;93539.91;4981628;28;20051;-65
2024/03/18 11:41:43;;;;;;;3.78;3.42;;;;;;;21.23;41.47;93541.44;4984812;28;20128;-64
2024/03/18 11:44:13;;;;;;;4.63;3.80;;;;;;;21.19;41.25;93521.72;4986421;28;20033;-65
2024/03/18 11:46:48;;;;;;;3.85;3.45;;;;;;;21.26;41.58;93521.75;4986166;28;20107;-65
2024/03/18 11:49:31;;;;;;;3.72;3.33;;;;;;;21.31;40.92;93523.28;4991710;23;20085;-65
2024/03/18 11:52:09;;;;;;;5.43;4.25;;;;;;;21.37;41.09;93532.53;4978487;28;20052;-65
2024/03/18 11:54:34;;;;;;;4.38;3.85;;;;;;;21.33;41.48;93516.31;4979156;28;20056;-65
2024/03/18 11:57:05;;;;;;;4.82;3.83;;;;;;;21.33;41.38;93516.31;4979588;28;20042;-66
2024/03/18 11:59:30;;;;;;;4.45;3.83;;;;;;;21.29;41.30;93510.13;4976010;28;20039;-66
2024/03/18 12:01:58;;;;;;;5.55;3.83;;;;;;;21.31;41.40;93524.06;4978609;28;20561;-66
2024/03/18 12:04:26;;;;;;;4.20;3.55;;;;;;;21.25;41.46;93520.19;4967129;28;20026;-65
2024/03/18 12:06:53;;;;;;;7.30;4.00;;;;;;;21.29;41.89;93510.13;4977405;28;20048;-66
2024/03/18 12:09:25;;;;;;;4.65;3.72;;;;;;;21.28;41.76;93508.59;4973085;28;20050;-65
2024/03/18 12:11:50;;;;;;;4.70;3.92;;;;;;;21.25;41.41;93490.44;4979139;28;20049;-64
2024/03/18 12:14:16;;;;;;;4.28;2.90;;;;;;;21.31;41.86;93491.59;4977328;28;20788;-66
2024/03/18 12:16:44;;;;;;;3.90;3.50;;;;;;;21.28;41.71;93492.38;4975374;28;20097;-66
2024/03/18 12:19:21;;;;;;;4.85;2.90;;;;;;;21.38;40.78;93483.47;4971353;28;20044;-65
2024/03/18 12:21:47;;;;;;;4.88;3.65;;;;;;;21.41;40.86;93485.38;4977629;28;20057;-66
2024/03/18 12:29:58;;;;;;;4.38;3.42;;;;;;;21.34;40.99;93471.88;4975573;28;20081;-65
2024/03/18 12:32:26;;;;;;;4.25;3.22;;;;;;;21.31;41.21;93469.97;4979798;28;21313;-65
2024/03/18 12:35:05;;;;;;;4.10;3.70;;;;;;;21.27;41.31;93471.88;4975690;28;20379;-66
2024/03/18 12:37:36;;;;;;;3.95;3.42;;;;;;;21.25;41.41;93465.34;4978155;28;20535;-65
2024/03/18 12:40:06;;;;;;;4.07;3.67;;;;;;;21.24;41.45;93459.16;4976025;28;20139;-65
2024/03/18 12:42:32;;;;;;;4.50;3.17;;;;;;;21.25;41.49;93458.00;4969270;28;20109;-65